createdAt,value
2022-07-31T00:03:12.677Z,12.41
2022-07-31T00:08:15.187Z,12.45
2022-07-31T00:13:17.027Z,12.63
2022-07-31T00:18:18.844Z,12.64
2022-07-31T00:23:20.686Z,12.87
2022-07-31T00:28:22.479Z,12.96
2022-07-31T00:33:24.418Z,13.12
2022-07-31T00:38:27.278Z,13.18
2022-07-31T00:43:30.778Z,13.12
2022-07-31T00:48:33.957Z,13.14
2022-07-31T00:53:36.317Z,13.18
2022-07-31T00:58:38.137Z,13.09
2022-07-31T01:03:40.208Z,13.11
2022-07-31T01:08:42.055Z,13.09
2022-07-31T01:13:58.031Z,13.04
2022-07-31T01:19:05.118Z,13.05
2022-07-31T01:24:44.571Z,13.04
2022-07-31T01:30:01.304Z,13.03
2022-07-31T01:35:25.880Z,13.01
2022-07-31T01:40:37.570Z,13.00
2022-07-31T01:45:43.777Z,12.95
2022-07-31T01:50:49.751Z,12.92
2022-07-31T01:56:01.818Z,12.80
2022-07-31T02:01:13.996Z,12.77
2022-07-31T02:06:19.090Z,12.70
2022-07-31T02:11:22.130Z,12.66
2022-07-31T02:16:26.543Z,12.52
2022-07-31T02:21:37.960Z,12.57
2022-07-31T02:26:41.106Z,12.53
2022-07-31T02:31:44.830Z,12.33
2022-07-31T02:36:47.454Z,12.19
2022-07-31T02:41:50.062Z,12.12
2022-07-31T02:46:52.260Z,12.11
2022-07-31T02:51:55.797Z,11.97
2022-07-31T02:56:58.762Z,11.92
2022-07-31T03:02:00.790Z,11.87
2022-07-31T03:07:04.980Z,11.83
2022-07-31T03:12:07.793Z,11.88
2022-07-31T03:17:10.737Z,11.86
2022-07-31T03:22:15.436Z,11.87
2022-07-31T03:27:17.672Z,12.02
2022-07-31T03:32:19.659Z,12.08
2022-07-31T03:37:22.038Z,12.08
2022-07-31T03:42:25.020Z,12.14
2022-07-31T03:47:26.949Z,12.13
2022-07-31T03:52:29.712Z,12.03
2022-07-31T03:57:34.205Z,11.99
2022-07-31T04:02:36.758Z,11.94
2022-07-31T04:07:44.496Z,11.86
2022-07-31T04:12:46.374Z,11.90
2022-07-31T04:17:48.817Z,12.04
2022-07-31T04:22:55.684Z,12.29
2022-07-31T04:28:23.386Z,12.53
2022-07-31T04:33:25.826Z,12.69
2022-07-31T04:38:28.005Z,12.76
2022-07-31T04:43:31.155Z,12.89
2022-07-31T04:48:33.086Z,13.02
2022-07-31T04:53:35.019Z,13.13
2022-07-31T04:58:40.707Z,13.23
2022-07-31T05:03:42.543Z,13.32
2022-07-31T05:08:44.545Z,13.54
2022-07-31T05:13:46.415Z,13.71
2022-07-31T05:18:48.699Z,13.85
2022-07-31T05:24:16.876Z,13.98
2022-07-31T05:29:38.563Z,14.15
2022-07-31T05:34:41.129Z,14.30
2022-07-31T05:39:44.831Z,14.41
2022-07-31T05:45:05.393Z,14.53
2022-07-31T05:50:08.512Z,14.70
2022-07-31T05:55:10.485Z,14.84
2022-07-31T06:00:30.469Z,15.03
2022-07-31T06:05:35.092Z,15.26
2022-07-31T06:10:37.690Z,15.47
2022-07-31T06:15:49.056Z,15.59
2022-07-31T06:20:51.468Z,15.77
2022-07-31T06:25:53.398Z,15.96
2022-07-31T06:30:55.632Z,16.15
2022-07-31T06:35:57.560Z,16.34
2022-07-31T06:41:36.759Z,16.54
2022-07-31T06:46:57.176Z,16.48
2022-07-31T06:52:37.886Z,16.40
2022-07-31T06:57:40.556Z,16.49
2022-07-31T07:02:43.250Z,16.58
2022-07-31T07:07:45.257Z,16.71
2022-07-31T07:12:47.324Z,17.25
2022-07-31T07:17:50.101Z,17.76
2022-07-31T07:22:57.039Z,17.96
2022-07-31T07:28:15.232Z,18.22
2022-07-31T07:33:41.604Z,18.60
2022-07-31T07:38:56.192Z,19.04
2022-07-31T07:43:58.842Z,18.99
2022-07-31T07:49:03.583Z,19.22
2022-07-31T07:54:15.325Z,19.46
2022-07-31T07:59:36.055Z,19.52
2022-07-31T08:04:57.879Z,19.73
2022-07-31T08:10:00.560Z,19.89
2022-07-31T08:15:09.934Z,19.88
2022-07-31T08:20:38.466Z,20.09
2022-07-31T08:25:40.870Z,20.34
2022-07-31T08:30:43.186Z,20.65
2022-07-31T08:35:49.618Z,20.80
2022-07-31T08:40:53.374Z,20.64
2022-07-31T08:45:55.871Z,20.87
2022-07-31T08:51:05.508Z,21.23
2022-07-31T08:56:38.008Z,21.60
2022-07-31T09:01:39.990Z,21.73
2022-07-31T09:06:42.004Z,22.16
2022-07-31T09:11:48.669Z,22.07
2022-07-31T09:17:34.712Z,22.44
2022-07-31T09:22:36.719Z,22.64
2022-07-31T09:27:40.319Z,22.90
2022-07-31T09:32:43.368Z,23.39
2022-07-31T09:37:50.979Z,23.91
2022-07-31T09:43:19.999Z,24.33
2022-07-31T09:48:26.666Z,23.84
2022-07-31T09:53:50.304Z,23.86
2022-07-31T09:59:18.435Z,23.73
2022-07-31T10:04:22.720Z,23.38
2022-07-31T10:09:27.439Z,23.21
2022-07-31T10:14:45.092Z,24.29
2022-07-31T10:19:51.099Z,25.17
2022-07-31T10:25:25.901Z,24.85
2022-07-31T10:30:28.990Z,24.17
2022-07-31T10:35:41.395Z,24.70
2022-07-31T10:41:05.972Z,24.71
2022-07-31T10:46:07.891Z,24.42
2022-07-31T10:51:32.596Z,25.51
2022-07-31T10:57:00.455Z,24.38
2022-07-31T11:02:13.980Z,25.77
2022-07-31T11:07:37.807Z,24.92
2022-07-31T11:12:40.268Z,26.03
2022-07-31T11:18:21.193Z,28.76
2022-07-31T11:23:08.623Z,26.97
2022-07-31T11:28:10.575Z,30.36
2022-07-31T11:33:13.182Z,34.41
2022-07-31T11:38:15.099Z,33.06
2022-07-31T11:43:26.193Z,34.21
2022-07-31T11:48:37.410Z,35.48
2022-07-31T11:53:42.011Z,34.76
2022-07-31T11:58:52.023Z,33.06
2022-07-31T12:03:54.460Z,36.29
2022-07-31T12:08:56.701Z,36.35
2022-07-31T12:13:59.561Z,33.75
2022-07-31T12:19:01.356Z,35.52
2022-07-31T12:24:11.015Z,33.70
2022-07-31T12:29:13.253Z,34.08
2022-07-31T12:34:38.348Z,31.36
2022-07-31T12:39:59.303Z,31.59
2022-07-31T12:45:18.026Z,34.46
2022-07-31T12:50:23.092Z,37.96
2022-07-31T12:55:25.021Z,39.14
2022-07-31T13:00:28.057Z,36.79
2022-07-31T13:05:29.892Z,36.13
2022-07-31T13:10:32.297Z,41.18
2022-07-31T13:15:34.563Z,43.90
2022-07-31T13:20:36.375Z,39.65
2022-07-31T13:25:38.257Z,41.22
2022-07-31T13:30:40.106Z,41.14
2022-07-31T13:35:42.113Z,43.78
2022-07-31T13:41:02.306Z,43.13
2022-07-31T13:46:04.550Z,42.69
2022-07-31T13:51:06.398Z,46.37
2022-07-31T13:56:08.382Z,44.46
2022-07-31T14:01:10.327Z,41.61
2022-07-31T14:06:12.333Z,39.22
2022-07-31T14:11:15.299Z,38.58
2022-07-31T14:16:17.193Z,34.57
2022-07-31T14:21:19.026Z,32.12
2022-07-31T14:26:20.885Z,33.18
2022-07-31T14:31:22.707Z,38.61
2022-07-31T14:36:24.569Z,39.97
2022-07-31T14:41:26.380Z,35.86
2022-07-31T14:46:28.260Z,30.91
2022-07-31T14:51:30.081Z,29.98
2022-07-31T14:56:59.695Z,37.75
2022-07-31T15:01:54.007Z,40.03
2022-07-31T15:07:07.610Z,35.38
2022-07-31T15:12:17.794Z,35.07
2022-07-31T15:17:19.671Z,31.32
2022-07-31T15:22:21.511Z,32.10
2022-07-31T15:27:24.269Z,31.95
2022-07-31T15:32:25.909Z,30.78
2022-07-31T15:37:28.519Z,30.56
2022-07-31T15:42:40.756Z,30.12
2022-07-31T15:47:43.421Z,28.91
2022-07-31T15:52:45.108Z,27.53
2022-07-31T15:57:47.158Z,27.31
2022-07-31T16:02:50.056Z,27.20
2022-07-31T16:08:30.981Z,26.59
2022-07-31T16:13:16.435Z,26.49
2022-07-31T16:18:18.771Z,26.39
2022-07-31T16:23:20.644Z,26.15
2022-07-31T16:28:22.332Z,26.15
2022-07-31T16:33:23.953Z,26.82
2022-07-31T16:38:25.651Z,26.93
2022-07-31T16:43:50.348Z,26.46
2022-07-31T16:48:49.009Z,26.34
2022-07-31T16:54:14.500Z,26.14
2022-07-31T16:59:12.338Z,25.61
2022-07-31T17:04:14.333Z,25.01
2022-07-31T17:09:18.564Z,24.64
2022-07-31T17:14:22.207Z,24.56
2022-07-31T17:19:41.260Z,24.47
2022-07-31T17:24:51.141Z,24.59
2022-07-31T17:29:53.198Z,24.62
2022-07-31T17:34:54.930Z,24.38
2022-07-31T17:39:57.827Z,24.35
2022-07-31T17:45:01.903Z,24.19
2022-07-31T17:50:04.284Z,23.82
2022-07-31T17:55:06.934Z,23.49
2022-07-31T18:00:09.983Z,23.26
2022-07-31T18:05:11.793Z,22.93
2022-07-31T18:10:13.541Z,22.67
2022-07-31T18:15:15.423Z,22.58
2022-07-31T18:20:21.747Z,22.48
2022-07-31T18:25:23.443Z,22.50
2022-07-31T18:30:30.366Z,22.49
2022-07-31T18:35:34.496Z,22.42
2022-07-31T18:40:36.280Z,22.28
2022-07-31T18:45:41.592Z,22.16
2022-07-31T18:50:59.054Z,22.25
2022-07-31T18:56:05.151Z,22.30
2022-07-31T19:01:06.776Z,22.28
2022-07-31T19:06:08.414Z,22.24
2022-07-31T19:11:11.693Z,22.24
2022-07-31T19:16:13.492Z,22.14
2022-07-31T19:21:19.453Z,21.66
2022-07-31T19:26:25.674Z,21.25
2022-07-31T19:31:27.579Z,21.45
2022-07-31T19:36:29.268Z,21.04
2022-07-31T19:41:32.721Z,20.33
2022-07-31T19:46:35.811Z,19.87
2022-07-31T19:51:37.489Z,19.55
2022-07-31T19:56:39.123Z,19.38
2022-07-31T20:01:40.829Z,19.40
2022-07-31T20:06:42.504Z,19.55
2022-07-31T20:11:44.375Z,19.89
2022-07-31T20:16:46.023Z,19.84
2022-07-31T20:21:47.738Z,19.82
2022-07-31T20:26:51.647Z,19.83
2022-07-31T20:31:53.629Z,19.75
2022-07-31T20:36:55.529Z,19.51
2022-07-31T20:41:58.619Z,19.21
2022-07-31T20:47:00.376Z,18.70
2022-07-31T20:52:02.320Z,18.42
2022-07-31T20:57:04.180Z,18.10
2022-07-31T21:02:06.160Z,18.00
2022-07-31T21:07:07.866Z,17.91
2022-07-31T21:12:09.676Z,17.96
2022-07-31T21:17:11.347Z,17.93
2022-07-31T21:22:13.109Z,17.89
2022-07-31T21:27:17.777Z,18.02
2022-07-31T21:32:19.843Z,17.99
2022-07-31T21:37:23.044Z,17.91
2022-07-31T21:42:25.124Z,17.85
2022-07-31T21:47:30.312Z,17.86
2022-07-31T21:52:52.130Z,17.88
2022-07-31T21:57:59.069Z,17.91
2022-07-31T22:03:03.322Z,17.90
2022-07-31T22:08:05.316Z,17.89
2022-07-31T22:13:10.420Z,17.96
2022-07-31T22:18:12.509Z,17.85
2022-07-31T22:23:14.696Z,17.79
2022-07-31T22:28:21.842Z,17.76
2022-07-31T22:33:23.950Z,17.72
2022-07-31T22:38:27.214Z,17.68
2022-07-31T22:44:10.289Z,17.62
2022-07-31T22:48:53.579Z,17.52
2022-07-31T22:53:55.444Z,17.48
2022-07-31T22:58:57.290Z,17.48
2022-07-31T23:03:59.118Z,17.27
2022-07-31T23:09:01.888Z,17.06
2022-07-31T23:14:03.997Z,16.87
2022-07-31T23:19:06.012Z,16.80
2022-07-31T23:24:08.484Z,16.67
2022-07-31T23:29:10.321Z,16.40
2022-07-31T23:34:12.194Z,16.21
2022-07-31T23:39:14.122Z,16.05
2022-07-31T23:44:18.671Z,15.92
2022-07-31T23:49:27.136Z,15.76
2022-07-31T23:54:29.129Z,15.58
2022-07-31T23:59:31.067Z,15.46
